createdAt,value
2022-12-25T00:01:25.582Z,98782.66
2022-12-25T00:03:53.818Z,98754.69
2022-12-25T00:06:21.784Z,98738.69
2022-12-25T00:08:49.593Z,98720.13
2022-12-25T00:11:20.133Z,98713.41
2022-12-25T00:13:50.076Z,98704.91
2022-12-25T00:16:20.648Z,98714.25
2022-12-25T00:18:48.815Z,98716.69
2022-12-25T00:21:16.993Z,98735.31
2022-12-25T00:23:45.402Z,98739.53
2022-12-25T00:26:15.367Z,98732.75
2022-12-25T00:28:43.616Z,98728.50
2022-12-25T00:31:14.734Z,98732.75
2022-12-25T00:33:44.265Z,98723.50
2022-12-25T00:36:13.393Z,98708.34
2022-12-25T00:38:42.015Z,98691.41
2022-12-25T00:41:12.043Z,98672.03
2022-12-25T00:43:41.843Z,98658.59
2022-12-25T00:46:11.024Z,98638.22
2022-12-25T00:48:40.933Z,98634.94
2022-12-25T00:51:12.466Z,98622.25
2022-12-25T00:56:32.556Z,98597.81
2022-12-25T00:59:00.347Z,98575.84
2022-12-25T01:01:28.239Z,98570.03
2022-12-25T01:03:57.661Z,98548.88
2022-12-25T01:06:25.916Z,98545.50
2022-12-25T01:09:11.424Z,98553.16
2022-12-25T01:11:39.343Z,98546.31
2022-12-25T01:14:07.314Z,98559.00
2022-12-25T01:16:35.444Z,98564.09
2022-12-25T01:19:05.044Z,98573.34
2022-12-25T01:21:33.263Z,98612.13
2022-12-25T01:24:01.207Z,98614.69
2022-12-25T01:26:29.343Z,98608.75
2022-12-25T01:28:57.465Z,98591.09
2022-12-25T01:31:25.965Z,98582.66
2022-12-25T01:33:53.952Z,98575.00
2022-12-25T01:36:24.670Z,98570.81
2022-12-25T01:38:53.578Z,98576.78
2022-12-25T01:41:23.637Z,98572.53
2022-12-25T01:44:01.518Z,98572.53
2022-12-25T01:46:29.440Z,98572.53
2022-12-25T01:49:02.659Z,98574.19
2022-12-25T01:51:36.857Z,98586.88
2022-12-25T01:54:10.900Z,98586.00
2022-12-25T01:56:42.022Z,98577.56
2022-12-25T01:59:11.843Z,98582.66
2022-12-25T02:01:39.792Z,98586.88
2022-12-25T02:04:15.823Z,98597.84
2022-12-25T02:06:45.265Z,98603.75
2022-12-25T02:09:13.295Z,98609.63
2022-12-25T02:12:00.114Z,98610.47
2022-12-25T02:14:31.141Z,98618.06
2022-12-25T02:17:07.793Z,98623.97
2022-12-25T02:19:58.896Z,98630.75
2022-12-25T02:22:37.838Z,98632.34
2022-12-25T02:25:25.813Z,98647.59
2022-12-25T02:28:11.134Z,98651.81
2022-12-25T02:30:43.850Z,98655.16
2022-12-25T02:33:32.808Z,98674.63
2022-12-25T02:36:06.742Z,98680.50
2022-12-25T02:39:00.123Z,98687.28
2022-12-25T02:41:30.790Z,98693.19
2022-12-25T02:44:21.797Z,98703.34
2022-12-25T02:47:07.345Z,98709.22
2022-12-25T02:49:54.164Z,98717.66
2022-12-25T02:52:41.838Z,98721.84
2022-12-25T02:55:43.007Z,98740.41
2022-12-25T02:58:47.398Z,98757.28
2022-12-25T03:01:38.453Z,98785.28
2022-12-25T03:04:28.644Z,98780.06
2022-12-25T03:07:02.286Z,98792.78
2022-12-25T03:09:54.243Z,98802.09
2022-12-25T03:12:30.717Z,98811.34
2022-12-25T03:15:30.566Z,98823.22
2022-12-25T03:18:02.600Z,98831.59
2022-12-25T03:20:49.247Z,98840.06
2022-12-25T03:23:38.990Z,98859.50
2022-12-25T03:26:24.875Z,98873.91
2022-12-25T03:29:31.968Z,98878.97
2022-12-25T03:32:11.051Z,98867.09
2022-12-25T03:35:22.861Z,98859.53
2022-12-25T03:38:14.721Z,98853.56
2022-12-25T03:41:19.620Z,98860.34
2022-12-25T03:44:22.914Z,98872.19
2022-12-25T03:47:18.073Z,98889.13
2022-12-25T03:50:09.592Z,98895.78
2022-12-25T03:52:58.152Z,98911.88
2022-12-25T03:55:45.187Z,98922.84
2022-12-25T03:58:36.775Z,98944.06
2022-12-25T04:01:22.530Z,98949.06
2022-12-25T04:04:16.132Z,98948.22
2022-12-25T04:07:01.654Z,98948.19
2022-12-25T04:09:48.199Z,98951.56
2022-12-25T04:12:33.585Z,98969.41
2022-12-25T04:15:18.738Z,98971.09
2022-12-25T04:18:29.108Z,98969.38
2022-12-25T04:21:14.310Z,98976.13
2022-12-25T04:23:59.691Z,98982.03
2022-12-25T04:26:46.545Z,98991.34
2022-12-25T04:29:32.193Z,98984.56
2022-12-25T04:32:17.578Z,98990.50
2022-12-25T04:35:02.872Z,98983.72
2022-12-25T04:37:30.725Z,98981.16
2022-12-25T04:39:58.567Z,98976.97
2022-12-25T04:42:27.694Z,98979.53
2022-12-25T04:44:55.527Z,98991.38
2022-12-25T04:47:23.323Z,99008.19
2022-12-25T04:49:51.527Z,99023.44
2022-12-25T04:52:19.370Z,99039.50
2022-12-25T04:54:47.224Z,99043.72
2022-12-25T04:57:15.002Z,99065.75
2022-12-25T04:59:44.252Z,99077.59
2022-12-25T05:02:12.157Z,99088.53
2022-12-25T05:04:40.080Z,99102.09
2022-12-25T05:07:07.840Z,99103.78
2022-12-25T05:09:35.636Z,99108.03
2022-12-25T05:12:03.489Z,99113.13
2022-12-25T05:14:31.279Z,99118.19
2022-12-25T05:17:00.482Z,99118.19
2022-12-25T05:19:28.381Z,99113.94
2022-12-25T05:21:56.626Z,99126.59
2022-12-25T05:24:27.919Z,99136.78
2022-12-25T05:26:55.829Z,99140.97
2022-12-25T05:29:23.643Z,99149.50
2022-12-25T05:31:51.552Z,99155.38
2022-12-25T05:34:20.748Z,99166.38
2022-12-25T05:36:48.613Z,99172.38
2022-12-25T05:39:16.361Z,99169.78
2022-12-25T05:41:44.222Z,99174.84
2022-12-25T05:44:12.060Z,99179.94
2022-12-25T05:46:40.063Z,99189.22
2022-12-25T05:49:07.881Z,99189.22
2022-12-25T05:51:37.067Z,99201.94
2022-12-25T05:54:05.287Z,99212.13
2022-12-25T05:56:33.150Z,99205.34
2022-12-25T05:59:00.925Z,99211.28
2022-12-25T06:01:29.754Z,99200.22
2022-12-25T06:03:58.311Z,99194.31
2022-12-25T06:06:26.504Z,99196.88
2022-12-25T06:08:56.347Z,99199.41
2022-12-25T06:11:24.278Z,99196.84
2022-12-25T06:13:53.695Z,99207.06
2022-12-25T06:16:21.631Z,99205.34
2022-12-25T06:18:52.047Z,99221.41
2022-12-25T06:21:20.466Z,99231.56
2022-12-25T06:23:48.664Z,99255.28
2022-12-25T06:26:19.813Z,99265.44
2022-12-25T06:28:48.139Z,99275.56
2022-12-25T06:31:18.083Z,99284.03
2022-12-25T06:33:46.364Z,99286.59
2022-12-25T06:36:16.030Z,99289.13
2022-12-25T06:38:44.182Z,99284.91
2022-12-25T06:41:14.292Z,99279.81
2022-12-25T06:43:43.953Z,99267.13
2022-12-25T06:46:13.564Z,99267.13
2022-12-25T06:48:47.893Z,99252.72
2022-12-25T06:51:16.138Z,99251.88
2022-12-25T06:53:44.050Z,99253.59
2022-12-25T06:56:15.313Z,99239.19
2022-12-25T06:58:45.926Z,99240.03
2022-12-25T07:01:18.311Z,99268.00
2022-12-25T07:03:47.988Z,99287.47
2022-12-25T07:06:16.146Z,99298.44
2022-12-25T07:08:44.213Z,99317.09
2022-12-25T07:11:12.247Z,99340.81
2022-12-25T07:13:40.088Z,99362.84
2022-12-25T07:16:09.558Z,99378.94
2022-12-25T07:18:37.404Z,99393.31
2022-12-25T07:21:10.355Z,99391.69
2022-12-25T07:23:38.205Z,99364.50
2022-12-25T07:26:06.667Z,99353.53
2022-12-25T07:28:35.195Z,99341.66
2022-12-25T07:31:04.096Z,99346.75
2022-12-25T07:33:33.861Z,99370.47
2022-12-25T07:36:01.922Z,99404.34
2022-12-25T07:38:29.802Z,99432.28
2022-12-25T07:40:57.940Z,99449.25
2022-12-25T07:43:25.756Z,99456.06
2022-12-25T07:45:57.000Z,99461.16
2022-12-25T07:48:25.082Z,99476.41
2022-12-25T07:50:58.791Z,99488.25
2022-12-25T07:53:27.231Z,99488.28
2022-12-25T07:55:59.958Z,99492.50
2022-12-25T07:58:28.043Z,99490.78
2022-12-25T08:00:56.372Z,99489.94
2022-12-25T08:03:24.457Z,99489.13
2022-12-25T08:05:52.362Z,99484.03
2022-12-25T08:08:21.565Z,99482.38
2022-12-25T08:10:49.460Z,99475.56
2022-12-25T08:13:17.319Z,99468.75
2022-12-25T08:15:45.152Z,99466.25
2022-12-25T08:18:13.103Z,99455.22
2022-12-25T08:20:40.937Z,99476.44
2022-12-25T08:23:08.803Z,99484.88
2022-12-25T08:25:37.988Z,99482.38
2022-12-25T08:28:06.036Z,99484.03
2022-12-25T08:30:33.940Z,99486.56
2022-12-25T08:33:02.014Z,99512.00
2022-12-25T08:35:34.651Z,99539.16
2022-12-25T08:38:02.461Z,99552.72
2022-12-25T08:40:30.261Z,99568.81
2022-12-25T08:42:59.506Z,99603.63
2022-12-25T08:45:32.741Z,99631.56
2022-12-25T08:48:02.738Z,99670.59
2022-12-25T08:50:56.262Z,99711.38
2022-12-25T08:53:24.481Z,99747.06
2022-12-25T08:55:58.459Z,99782.75
2022-12-25T08:58:28.288Z,99813.25
2022-12-25T09:00:56.477Z,99843.88
2022-12-25T09:03:24.912Z,99872.78
2022-12-25T09:05:53.078Z,99890.59
2022-12-25T09:08:21.900Z,99908.47
2022-12-25T09:10:49.891Z,99915.19
2022-12-25T09:13:17.821Z,99919.44
2022-12-25T09:15:47.095Z,99943.31
2022-12-25T09:18:14.998Z,99942.44
2022-12-25T09:20:42.794Z,99942.38
2022-12-25T09:23:14.174Z,99958.59
2022-12-25T09:25:42.294Z,99959.41
2022-12-25T09:28:10.185Z,99976.44
2022-12-25T09:30:38.221Z,99989.19
2022-12-25T09:33:07.478Z,100004.47
2022-12-25T09:35:35.477Z,100029.13
2022-12-25T09:38:03.317Z,100049.56
2022-12-25T09:40:33.060Z,100080.19
2022-12-25T09:43:03.077Z,100103.97
2022-12-25T09:45:35.134Z,100112.44
2022-12-25T09:48:03.147Z,100134.59
2022-12-25T09:50:42.160Z,100147.34
2022-12-25T09:53:15.866Z,100163.56
2022-12-25T09:55:49.886Z,100171.19
2022-12-25T09:58:17.694Z,100176.25
2022-12-25T10:00:52.326Z,100201.00
2022-12-25T10:03:37.952Z,100215.44
2022-12-25T10:06:21.779Z,100236.75
2022-12-25T10:09:21.089Z,100256.31
2022-12-25T10:12:08.789Z,100279.31
2022-12-25T10:14:44.827Z,100291.25
2022-12-25T10:17:27.266Z,100311.66
2022-12-25T10:20:04.381Z,100332.97
2022-12-25T10:22:38.014Z,100350.88
2022-12-25T10:25:07.922Z,100363.63
2022-12-25T10:27:40.059Z,100378.13
2022-12-25T10:30:16.055Z,100388.31
2022-12-25T10:32:45.559Z,100396.81
2022-12-25T10:35:14.080Z,100411.34
2022-12-25T10:37:44.442Z,100413.03
2022-12-25T10:40:28.974Z,100422.44
2022-12-25T10:43:04.272Z,100426.69
2022-12-25T10:45:32.108Z,100436.94
2022-12-25T10:48:07.630Z,100440.31
2022-12-25T10:50:43.881Z,100444.59
2022-12-25T10:53:21.176Z,100449.69
2022-12-25T10:55:56.350Z,100446.28
2022-12-25T10:58:27.389Z,100459.94
2022-12-25T11:00:59.210Z,100455.69
2022-12-25T11:03:32.517Z,100459.94
2022-12-25T11:06:01.215Z,100452.28
2022-12-25T11:08:34.734Z,100447.16
2022-12-25T11:11:07.066Z,100445.44
2022-12-25T11:13:37.452Z,100438.63
2022-12-25T11:16:09.415Z,100434.38
2022-12-25T11:18:46.792Z,100428.38
2022-12-25T11:21:20.472Z,100426.72
2022-12-25T11:23:56.620Z,100419.88
2022-12-25T11:26:24.645Z,100419.06
2022-12-25T11:28:53.523Z,100411.34
2022-12-25T11:31:28.934Z,100398.53
2022-12-25T11:34:05.443Z,100387.44
2022-12-25T11:36:50.039Z,100401.13
2022-12-25T11:39:28.345Z,100391.72
2022-12-25T11:42:00.438Z,100390.03
2022-12-25T11:44:59.977Z,100393.44
2022-12-25T11:47:57.275Z,100390.88
2022-12-25T11:50:29.559Z,100384.94
2022-12-25T11:53:01.727Z,100382.38
2022-12-25T11:55:38.687Z,100375.56
2022-12-25T11:58:15.675Z,100378.97
2022-12-25T12:00:45.821Z,100372.97
2022-12-25T12:03:18.317Z,100365.31
2022-12-25T12:05:49.130Z,100365.31
2022-12-25T12:08:17.031Z,100361.91
2022-12-25T12:10:58.452Z,100354.25
2022-12-25T12:13:39.009Z,100354.25
2022-12-25T12:16:08.459Z,100350.88
2022-12-25T12:18:37.789Z,100343.16
2022-12-25T12:21:09.333Z,100344.00
2022-12-25T12:23:50.109Z,100344.03
2022-12-25T12:26:22.045Z,100336.34
2022-12-25T12:28:51.551Z,100338.91
2022-12-25T12:31:19.882Z,100329.53
2022-12-25T12:33:54.194Z,100338.06
2022-12-25T12:36:35.771Z,100331.22
2022-12-25T12:39:06.010Z,100340.59
2022-12-25T12:41:48.313Z,100343.16
2022-12-25T12:44:18.366Z,100330.38
2022-12-25T12:46:54.446Z,100329.53
2022-12-25T12:49:24.670Z,100334.66
2022-12-25T12:52:04.518Z,100327.84
2022-12-25T12:54:32.454Z,100322.75
2022-12-25T12:57:03.715Z,100327.00
2022-12-25T12:59:40.071Z,100321.03
2022-12-25T13:02:31.691Z,100325.31
2022-12-25T13:05:06.872Z,100320.22
2022-12-25T13:07:55.233Z,100321.91
2022-12-25T13:10:27.151Z,100321.91
2022-12-25T13:13:00.560Z,100317.59
2022-12-25T13:15:32.197Z,100327.03
2022-12-25T13:18:04.134Z,100321.91
2022-12-25T13:20:41.183Z,100321.03
2022-12-25T13:23:24.453Z,100318.47
2022-12-25T13:25:56.550Z,100321.00
2022-12-25T13:28:31.177Z,100325.31
2022-12-25T13:31:09.622Z,100322.75
2022-12-25T13:33:38.326Z,100327.84
2022-12-25T13:36:11.415Z,100327.00
2022-12-25T13:38:44.019Z,100321.84
2022-12-25T13:41:29.818Z,100322.75
2022-12-25T13:44:00.208Z,100327.00
2022-12-25T13:46:29.100Z,100327.88
2022-12-25T13:49:00.137Z,100321.00
2022-12-25T13:51:29.474Z,100317.59
2022-12-25T13:54:06.842Z,100325.31
2022-12-25T13:56:35.872Z,100323.63
2022-12-25T13:59:05.928Z,100327.88
2022-12-25T14:01:33.963Z,100329.56
2022-12-25T14:04:02.141Z,100316.75
2022-12-25T14:06:33.225Z,100323.56
2022-12-25T14:09:01.604Z,100317.59
2022-12-25T14:11:30.635Z,100316.75
2022-12-25T14:14:01.024Z,100316.75
2022-12-25T14:16:30.912Z,100319.31
2022-12-25T14:19:01.863Z,100316.75
2022-12-25T14:21:32.531Z,100312.50
2022-12-25T14:24:01.079Z,100315.06
2022-12-25T14:26:31.404Z,100314.19
2022-12-25T14:29:15.578Z,100311.63
2022-12-25T14:31:49.607Z,100318.47
2022-12-25T14:34:21.685Z,100312.50
2022-12-25T14:36:52.570Z,100320.22
2022-12-25T14:39:32.034Z,100308.22
2022-12-25T14:42:01.082Z,100304.84
2022-12-25T14:44:33.916Z,100298.03
2022-12-25T14:47:15.023Z,100288.63
2022-12-25T14:49:44.030Z,100285.25
2022-12-25T14:52:24.399Z,100284.38
2022-12-25T14:54:56.535Z,100280.97
2022-12-25T14:57:29.634Z,100274.13
2022-12-25T15:00:04.019Z,100276.72
2022-12-25T15:02:45.612Z,100276.72
2022-12-25T15:05:37.671Z,100271.63
2022-12-25T15:11:12.319Z,100259.72
2022-12-25T15:13:40.573Z,100252.03
2022-12-25T15:16:18.730Z,100245.19
2022-12-25T15:18:49.920Z,100236.69
2022-12-25T15:21:21.620Z,100237.56
2022-12-25T15:23:49.490Z,100228.19
2022-12-25T15:26:17.581Z,100223.06
2022-12-25T15:28:45.403Z,100233.31
2022-12-25T15:31:21.013Z,100228.22
2022-12-25T15:33:50.878Z,100223.94
2022-12-25T15:36:18.850Z,100230.75
2022-12-25T15:38:47.053Z,100234.13
2022-12-25T15:41:37.992Z,100240.94
2022-12-25T15:44:07.133Z,100244.34
2022-12-25T15:46:35.782Z,100257.16
2022-12-25T15:49:05.576Z,100263.13
2022-12-25T15:51:33.472Z,100262.25
2022-12-25T15:54:01.361Z,100280.97
2022-12-25T15:56:30.380Z,100280.13
2022-12-25T15:58:58.242Z,100284.38
2022-12-25T16:01:26.220Z,100292.03
2022-12-25T16:03:54.209Z,100294.63
2022-12-25T16:06:23.530Z,100297.16
2022-12-25T16:08:51.349Z,100300.56
2022-12-25T16:11:19.167Z,100302.25
2022-12-25T16:13:47.029Z,100293.72
2022-12-25T16:16:14.925Z,100292.88
2022-12-25T16:18:47.329Z,100293.72
2022-12-25T16:21:17.923Z,100292.88
2022-12-25T16:23:47.249Z,100300.56
2022-12-25T16:26:15.403Z,100292.88
2022-12-25T16:28:43.303Z,100292.88
2022-12-25T16:31:12.000Z,100298.88
2022-12-25T16:33:39.927Z,100298.00
2022-12-25T16:36:08.625Z,100307.38
2022-12-25T16:38:36.704Z,100307.38
2022-12-25T16:41:06.156Z,100312.47
2022-12-25T16:43:34.023Z,100313.31
2022-12-25T16:46:01.906Z,100311.59
2022-12-25T16:48:30.244Z,100321.84
2022-12-25T16:50:58.152Z,100325.28
2022-12-25T16:53:25.946Z,100327.81
2022-12-25T16:55:53.844Z,100335.47
2022-12-25T16:58:23.041Z,100337.19
2022-12-25T17:00:50.892Z,100342.31
2022-12-25T17:03:18.872Z,100336.31
2022-12-25T17:05:46.914Z,100337.19
2022-12-25T17:08:14.767Z,100330.38
2022-12-25T17:10:42.608Z,100326.06
2022-12-25T17:13:10.489Z,100326.94
2022-12-25T17:15:42.758Z,100320.97
2022-12-25T17:18:13.086Z,100328.66
2022-12-25T17:20:40.850Z,100319.25
2022-12-25T17:23:08.651Z,100329.53
2022-12-25T17:25:36.735Z,100335.47
2022-12-25T17:28:04.885Z,100331.19
2022-12-25T17:30:33.283Z,100338.88
2022-12-25T17:33:02.567Z,100340.56
2022-12-25T17:35:30.402Z,100345.66
2022-12-25T17:37:58.188Z,100346.50
2022-12-25T17:40:26.592Z,100355.06
2022-12-25T17:42:54.571Z,100355.88
2022-12-25T17:45:22.377Z,100357.56
2022-12-25T17:47:54.882Z,100362.72
2022-12-25T17:50:25.477Z,100370.38
2022-12-25T17:52:53.811Z,100370.38
2022-12-25T17:55:21.620Z,100373.78
2022-12-25T17:57:49.505Z,100370.38
2022-12-25T18:00:18.003Z,100378.03
2022-12-25T18:02:47.396Z,100385.72
2022-12-25T18:05:15.491Z,100390.84
2022-12-25T18:07:44.745Z,100395.94
2022-12-25T18:10:12.833Z,100378.84
2022-12-25T18:12:40.732Z,100389.97
2022-12-25T18:15:09.948Z,100394.22
2022-12-25T18:17:37.778Z,100386.53
2022-12-25T18:20:06.491Z,100398.50
2022-12-25T18:22:34.973Z,100400.19
2022-12-25T18:25:04.326Z,100401.88
2022-12-25T18:27:32.156Z,100401.88
2022-12-25T18:30:00.008Z,100401.88
2022-12-25T18:32:28.291Z,100407.03
2022-12-25T18:34:56.714Z,100399.34
2022-12-25T18:37:24.530Z,100406.19
2022-12-25T18:39:52.396Z,100400.19
2022-12-25T18:42:38.971Z,100392.53
2022-12-25T18:45:09.498Z,100392.53
2022-12-25T18:47:37.316Z,100402.78
2022-12-25T18:50:09.594Z,100407.00
2022-12-25T18:52:49.352Z,100418.91
2022-12-25T18:55:19.238Z,100436.00
2022-12-25T18:57:49.531Z,100444.53
2022-12-25T19:00:18.284Z,100440.22
2022-12-25T19:02:46.327Z,100453.03
2022-12-25T19:05:14.208Z,100458.19
2022-12-25T19:07:42.031Z,100465.81
2022-12-25T19:10:11.269Z,100470.06
2022-12-25T19:12:39.104Z,100481.16
2022-12-25T19:15:09.468Z,100485.41
2022-12-25T19:17:37.322Z,100492.28
2022-12-25T19:20:06.790Z,100501.66
2022-12-25T19:22:34.648Z,100505.91
2022-12-25T19:25:02.624Z,100505.91
2022-12-25T19:27:30.394Z,100515.25
2022-12-25T19:29:58.448Z,100522.97
2022-12-25T19:32:27.814Z,100527.22
2022-12-25T19:34:55.624Z,100528.03
2022-12-25T19:37:23.595Z,100534.88
2022-12-25T19:39:51.592Z,100538.31
2022-12-25T19:42:21.950Z,100535.75
2022-12-25T19:44:50.047Z,100533.19
2022-12-25T19:47:17.899Z,100526.34
2022-12-25T19:49:52.566Z,100524.66
2022-12-25T19:52:21.076Z,100514.38
2022-12-25T19:54:52.219Z,100522.13
2022-12-25T19:57:20.120Z,100524.63
2022-12-25T19:59:50.142Z,100542.56
2022-12-25T20:02:18.113Z,100543.41
2022-12-25T20:04:47.385Z,100540.84
2022-12-25T20:07:15.249Z,100549.38
2022-12-25T20:09:43.354Z,100557.03
2022-12-25T20:12:14.633Z,100558.75
2022-12-25T20:14:42.463Z,100553.63
2022-12-25T20:17:15.483Z,100552.81
2022-12-25T20:19:44.305Z,100556.19
2022-12-25T20:22:13.601Z,100561.31
2022-12-25T20:24:41.452Z,100564.69
2022-12-25T20:27:09.300Z,100568.97
2022-12-25T20:29:37.173Z,100574.06
2022-12-25T20:32:05.452Z,100582.59
2022-12-25T20:34:33.389Z,100586.88
2022-12-25T20:37:01.178Z,100586.91
2022-12-25T20:39:30.472Z,100598.84
2022-12-25T20:41:58.364Z,100608.19
2022-12-25T20:44:26.233Z,100613.31
2022-12-25T20:46:54.908Z,100632.16
2022-12-25T20:49:22.705Z,100631.25
2022-12-25T20:51:50.803Z,100644.94
2022-12-25T20:54:18.644Z,100640.66
2022-12-25T20:56:49.826Z,100624.44
2022-12-25T20:59:17.704Z,100616.72
2022-12-25T21:01:45.632Z,100624.44
2022-12-25T21:04:16.370Z,100624.44
2022-12-25T21:06:44.640Z,100619.28
2022-12-25T21:09:12.630Z,100614.16
2022-12-25T21:11:40.672Z,100605.63
2022-12-25T21:14:10.079Z,100593.69
2022-12-25T21:16:38.041Z,100578.34
2022-12-25T21:19:05.904Z,100558.72
2022-12-25T21:21:35.874Z,100537.38
2022-12-25T21:24:03.780Z,100527.16
2022-12-25T21:26:31.828Z,100518.63
2022-12-25T21:29:02.443Z,100571.47
2022-12-25T21:31:52.293Z,100643.19
2022-12-25T21:34:21.101Z,100690.16
2022-12-25T21:36:49.234Z,100743.06
2022-12-25T21:39:17.329Z,100774.66
2022-12-25T21:41:45.233Z,100801.97
2022-12-25T21:44:13.278Z,100812.25
2022-12-25T21:46:42.521Z,100833.56
2022-12-25T21:49:10.555Z,100875.47
2022-12-25T21:51:56.227Z,100907.94
2022-12-25T21:54:28.193Z,100919.88
2022-12-25T21:56:55.988Z,100924.13
2022-12-25T21:59:23.891Z,100942.94
2022-12-25T22:01:53.727Z,100948.94
2022-12-25T22:04:23.430Z,100954.91
2022-12-25T22:07:08.892Z,100977.16
2022-12-25T22:09:38.086Z,101011.38
2022-12-25T22:12:28.587Z,101034.41
2022-12-25T22:15:06.124Z,101060.13
2022-12-25T22:17:54.987Z,101088.34
2022-12-25T22:24:08.163Z,101114.84
2022-12-25T22:26:36.340Z,101146.53
2022-12-25T22:29:04.166Z,101161.03
2022-12-25T22:31:31.955Z,101176.44
2022-12-25T22:34:01.158Z,101196.13
2022-12-25T22:36:28.948Z,101207.28
2022-12-25T22:38:56.824Z,101193.53
2022-12-25T22:41:29.776Z,101192.72
2022-12-25T22:44:17.773Z,101201.28
2022-12-25T22:46:46.343Z,101231.25
2022-12-25T22:49:16.516Z,101244.94
2022-12-25T22:51:44.935Z,101255.19
2022-12-25T22:54:13.877Z,101266.34
2022-12-25T22:56:42.208Z,101272.34
2022-12-25T22:59:10.678Z,101298.03
2022-12-25T23:01:43.818Z,101294.59
2022-12-25T23:06:37.433Z,101296.31
2022-12-25T23:09:06.117Z,101304.00
2022-12-25T23:11:34.857Z,101327.13
2022-12-25T23:14:21.917Z,101315.97
2022-12-25T23:16:49.813Z,101314.28
2022-12-25T23:19:35.845Z,101321.97
2022-12-25T23:22:22.539Z,101321.13
2022-12-25T23:25:08.014Z,101328.84
2022-12-25T23:27:36.053Z,101339.09
2022-12-25T23:30:02.983Z,101339.94
2022-12-25T23:32:32.459Z,101349.38
2022-12-25T23:35:00.356Z,101359.66
2022-12-25T23:37:31.041Z,101361.41
2022-12-25T23:39:59.259Z,101351.09
2022-12-25T23:42:27.066Z,101341.66
2022-12-25T23:44:54.904Z,101330.53
2022-12-25T23:47:22.718Z,101316.81
2022-12-25T23:49:50.574Z,101315.13
2022-12-25T23:52:18.447Z,101305.72
2022-12-25T23:54:47.909Z,101296.25
2022-12-25T23:57:15.796Z,101299.72
2022-12-25T23:59:43.613Z,101286.84
